< < Back
Terminal Aerodrome Forecast


Current Version              Previous Versions:   1  2  3  4  5  6  7  8  9  

Terminal Aerodrome Forecast

830
FTUS44 KOHX 031529 AAA
TAFBNA
TAF AMD
KBNA 031529Z 0315/0412 33005KT P6SM SCT022 BKN027 BKN050
     FM031800 33010KT P6SM BKN050
     FM040000 30004KT P6SM BKN060=

Latest METAR

716
SAUS70 KWBC 040400 RRG
MTRBNA
METAR KBNA 040353Z 27003KT 10SM OVC095 14/08 A2993 RMK AO2 SLP132
T01390083


USA.gov is the U.S. government's official web portal to all federal, state and local government web resources and services.